Payogasta, Argentina
Current Conditions -  °F | °C
As of 12:00 PM on Saturday 20 Dec 2014 (Local Time) from SASA Reporting Station
Clear Clear  
Wind Chill: 81°   Ceiling: Unl
Heat Index: 82°   Visibility: 6mi
Dew Point: 63°   Wind: 2mph
Humidity: 54%   Direction: 180°S
Pressure: 29.68"   Gusts: NA
Location:  25.06°S, 66.03°W
Report Text: SASA 201500Z 18002KT CAVOK 27/17 Q1005
Loading
Personal Weather Stations






























Interactive Weather Map New forecast layout! Learn more

10-Day Weather Forecast

Advertisements
Track Severe Weather on mobile